Time;durP1;ratioP1;P1;durP2;ratioP2;P2;SDS_P1;SDS_P2;PMS_P1;PMS_P2;Temp;Humidity;BMP_temperature;BMP_pressure;BME280_temperature;BME280_humidity;BME280_pressure;Samples;Min_cycle;Max_cycle;Signal;HPM_P1;HPM_P2
2021/08/06 00:04:46;;;;;;;1.57;0.83;;;;;;;;;;5053375;28;20429;-70
2021/08/06 00:07:13;;;;;;;0.90;0.90;;;;;;;;;;5053115;28;20457;-70
2021/08/06 00:09:39;;;;;;;1.63;0.93;;;;;;;;;;5053175;28;20433;-70
2021/08/06 00:12:05;;;;;;;0.90;0.90;;;;;;;;;;5052114;28;20473;-70
2021/08/06 00:14:32;;;;;;;1.13;0.97;;;;;;;;;;5052670;28;20472;-70
2021/08/06 00:20:01;;;;;;;1.03;0.73;;;;;;;;;;5052895;28;20856;-70
2021/08/06 00:22:27;;;;;;;1.10;0.80;;;;;;;;;;5052752;28;20505;-71
2021/08/06 00:24:53;;;;;;;4.07;0.90;;;;;;;;;;5052718;28;20415;-71
2021/08/06 00:27:19;;;;;;;1.97;0.90;;;;;;;;;;5052438;28;20925;-71
2021/08/06 00:29:45;;;;;;;1.70;0.90;;;;;;;;;;5052657;28;20450;-71
2021/08/06 00:35:15;;;;;;;0.80;0.80;;;;;;;;;;5052443;28;20477;-70
2021/08/06 00:37:41;;;;;;;1.00;0.80;;;;;;;;;;5052391;28;20415;-71
2021/08/06 00:40:08;;;;;;;2.37;0.93;;;;;;;;;;5052841;28;20893;-70
2021/08/06 00:42:34;;;;;;;1.00;0.90;;;;;;;;;;5051984;28;20470;-71
2021/08/06 00:45:00;;;;;;;1.27;0.90;;;;;;;;;;5052378;28;20418;-69
2021/08/06 00:47:26;;;;;;;2.10;0.90;;;;;;;;;;5052334;28;20772;-69
2021/08/06 00:49:51;;;;;;;1.63;1.27;;;;;;;;;;5052260;28;20412;-69
2021/08/06 00:52:18;;;;;;;1.17;1.07;;;;;;;;;;5051968;28;20450;-69
2021/08/06 00:54:44;;;;;;;1.10;0.90;;;;;;;;;;5052292;28;20420;-69
2021/08/06 00:57:13;;;;;;;0.90;0.83;;;;;;;;;;5051892;28;20442;-69
2021/08/06 00:59:39;;;;;;;1.97;0.97;;;;;;;;;;5051448;28;20510;-70
2021/08/06 01:05:13;;;;;;;1.07;0.93;;;;;;;;;;5052055;28;20785;-70
2021/08/06 01:07:59;;;;;;;1.90;1.00;;;;;;;;;;5052043;28;20462;-69
2021/08/06 01:10:29;;;;;;;1.90;0.90;;;;;;;;;;5051756;28;20462;-70
2021/08/06 01:12:56;;;;;;;1.53;1.43;;;;;;;;;;5051960;28;20465;-70
2021/08/06 01:15:22;;;;;;;1.13;1.03;;;;;;;;;;5049837;28;20935;-69
2021/08/06 01:17:49;;;;;;;1.30;0.87;;;;;;;;;;5051766;28;20424;-70
2021/08/06 01:20:18;;;;;;;0.70;0.70;;;;;;;;;;5051908;28;20419;-70
2021/08/06 01:22:50;;;;;;;1.20;1.10;;;;;;;;;;5050815;28;20478;-69
2021/08/06 01:25:16;;;;;;;1.00;1.00;;;;;;;;;;5050891;28;20464;-69
2021/08/06 01:27:46;;;;;;;1.73;1.13;;;;;;;;;;5051320;28;20423;-70
2021/08/06 01:30:13;;;;;;;1.30;1.07;;;;;;;;;;5051055;28;20411;-70
2021/08/06 01:35:43;;;;;;;0.70;0.60;;;;;;;;;;5051219;28;21011;-69
2021/08/06 01:38:10;;;;;;;1.80;1.27;;;;;;;;;;5051310;28;20415;-70
2021/08/06 01:40:40;;;;;;;1.50;1.40;;;;;;;;;;5051479;28;20415;-69
2021/08/06 01:43:06;;;;;;;2.60;1.20;;;;;;;;;;5051180;28;20474;-71
2021/08/06 01:45:37;;;;;;;1.60;1.17;;;;;;;;;;5050717;28;20418;-69
2021/08/06 01:48:03;;;;;;;1.20;1.10;;;;;;;;;;5051083;28;20940;-69
2021/08/06 01:50:31;;;;;;;1.33;0.90;;;;;;;;;;5051085;28;20473;-70
2021/08/06 01:53:00;;;;;;;2.70;1.00;;;;;;;;;;5051005;28;20423;-70
2021/08/06 01:55:29;;;;;;;4.00;0.93;;;;;;;;;;5051347;28;20495;-70
2021/08/06 01:57:56;;;;;;;1.43;0.80;;;;;;;;;;5051215;28;20502;-69
2021/08/06 02:00:22;;;;;;;1.43;0.93;;;;;;;;;;5051466;28;20418;-70
2021/08/06 02:05:52;;;;;;;1.43;1.20;;;;;;;;;;5051358;28;20460;-70
2021/08/06 02:08:18;;;;;;;2.20;1.17;;;;;;;;;;5050975;28;20408;-70
2021/08/06 02:10:45;;;;;;;1.20;1.10;;;;;;;;;;5051271;28;20422;-70
2021/08/06 02:13:11;;;;;;;1.10;1.00;;;;;;;;;;5051017;28;20775;-71
2021/08/06 02:15:40;;;;;;;1.37;1.00;;;;;;;;;;5051266;28;20411;-70
2021/08/06 02:21:13;;;;;;;2.83;1.30;;;;;;;;;;5051270;28;21051;-70
2021/08/06 02:23:43;;;;;;;1.77;1.30;;;;;;;;;;5051057;28;20497;-71
2021/08/06 02:26:09;;;;;;;3.30;1.23;;;;;;;;;;5051026;28;20928;-70
2021/08/06 02:28:35;;;;;;;1.13;1.03;;;;;;;;;;5050874;28;20419;-70
2021/08/06 02:31:01;;;;;;;1.00;0.90;;;;;;;;;;5050958;28;20411;-70
2021/08/06 02:33:28;;;;;;;2.17;1.17;;;;;;;;;;5049173;28;20534;-71
2021/08/06 02:35:54;;;;;;;1.30;1.20;;;;;;;;;;5051022;28;20537;-71
2021/08/06 02:38:23;;;;;;;1.33;0.97;;;;;;;;;;5054493;28;20466;-70
2021/08/06 02:40:50;;;;;;;1.20;1.10;;;;;;;;;;5054898;28;20485;-69
2021/08/06 02:43:16;;;;;;;1.53;0.80;;;;;;;;;;5054658;28;20419;-68
2021/08/06 02:45:42;;;;;;;1.20;1.10;;;;;;;;;;5054843;28;20434;-70
2021/08/06 02:51:12;;;;;;;1.50;1.40;;;;;;;;;;5054703;28;20774;-70
2021/08/06 02:53:38;;;;;;;0.93;0.93;;;;;;;;;;5054444;28;20423;-70
2021/08/06 02:56:04;;;;;;;1.60;1.50;;;;;;;;;;5054392;28;21039;-69
2021/08/06 02:58:30;;;;;;;1.43;1.30;;;;;;;;;;5054461;28;20774;-70
2021/08/06 03:00:56;;;;;;;1.23;1.10;;;;;;;;;;5054546;28;20430;-69
2021/08/06 03:06:25;;;;;;;1.70;1.20;;;;;;;;;;5054271;28;20975;-69
2021/08/06 03:08:51;;;;;;;1.80;1.40;;;;;;;;;;5054082;28;20415;-70
2021/08/06 03:11:17;;;;;;;1.63;1.33;;;;;;;;;;5053934;28;20422;-70
2021/08/06 03:13:43;;;;;;;1.60;1.47;;;;;;;;;;5054240;28;20429;-69
2021/08/06 03:16:09;;;;;;;1.47;1.30;;;;;;;;;;5054162;28;20960;-70
2021/08/06 03:21:39;;;;;;;1.63;1.10;;;;;;;;;;5053878;28;20508;-70
2021/08/06 03:24:05;;;;;;;2.80;1.23;;;;;;;;;;5053866;28;20793;-70
2021/08/06 03:26:31;;;;;;;1.30;1.20;;;;;;;;;;5054175;28;20411;-69
2021/08/06 03:28:57;;;;;;;1.40;1.30;;;;;;;;;;5053859;28;20760;-70
2021/08/06 03:37:11;;;;;;;1.73;1.63;;;;;;;;;;5053488;28;20430;-70
2021/08/06 03:39:37;;;;;;;1.77;1.10;;;;;;;;;;5053867;28;20719;-69
2021/08/06 03:42:03;;;;;;;1.37;1.27;;;;;;;;;;5053380;28;20554;-69
2021/08/06 03:44:29;;;;;;;1.33;1.23;;;;;;;;;;5053526;28;20456;-68
2021/08/06 03:46:55;;;;;;;1.47;1.37;;;;;;;;;;5053622;28;20422;-69
2021/08/06 03:49:21;;;;;;;1.30;1.20;;;;;;;;;;5051819;28;20519;-69
2021/08/06 03:51:47;;;;;;;2.80;1.47;;;;;;;;;;5053525;28;20781;-69
2021/08/06 03:54:13;;;;;;;1.90;1.20;;;;;;;;;;5053201;28;20485;-70
2021/08/06 03:56:39;;;;;;;1.60;1.50;;;;;;;;;;5053393;28;20419;-70
2021/08/06 03:59:05;;;;;;;2.00;1.60;;;;;;;;;;5053394;28;20761;-70
2021/08/06 04:01:31;;;;;;;2.53;1.27;;;;;;;;;;5053147;28;20515;-70
2021/08/06 04:07:00;;;;;;;1.47;1.37;;;;;;;;;;5052843;28;20418;-71
2021/08/06 04:09:26;;;;;;;1.87;1.60;;;;;;;;;;5052752;28;20423;-71
2021/08/06 04:11:52;;;;;;;3.30;1.43;;;;;;;;;;5053074;28;20411;-69
2021/08/06 04:14:18;;;;;;;3.10;1.80;;;;;;;;;;5053094;28;20897;-69
2021/08/06 04:16:44;;;;;;;1.50;1.40;;;;;;;;;;5053046;28;20813;-69
2021/08/06 04:22:14;;;;;;;6.43;1.90;;;;;;;;;;5052630;28;20481;-70
2021/08/06 04:24:40;;;;;;;1.50;1.40;;;;;;;;;;5052914;28;20776;-70
2021/08/06 04:27:06;;;;;;;1.90;1.80;;;;;;;;;;5052734;28;20430;-69
2021/08/06 04:29:32;;;;;;;1.43;1.33;;;;;;;;;;5052789;28;20454;-70
2021/08/06 04:31:58;;;;;;;1.37;1.10;;;;;;;;;;5052829;28;20430;-69
2021/08/06 04:37:27;;;;;;;1.67;1.57;;;;;;;;;;5052188;28;20919;-69
2021/08/06 04:39:53;;;;;;;1.80;1.50;;;;;;;;;;5052897;28;20419;-70
2021/08/06 04:42:19;;;;;;;2.43;1.47;;;;;;;;;;5052294;28;20482;-69
2021/08/06 04:44:45;;;;;;;1.73;1.63;;;;;;;;;;5052329;28;20419;-68
2021/08/06 04:47:11;;;;;;;2.30;1.73;;;;;;;;;;5052506;28;20484;-69
2021/08/06 04:49:39;;;;;;;1.50;1.40;;;;;;;;;;5052425;28;20411;-69
2021/08/06 04:52:05;;;;;;;3.00;1.60;;;;;;;;;;5051779;28;20506;-69
2021/08/06 04:54:31;;;;;;;1.70;1.60;;;;;;;;;;5052095;28;20407;-70
2021/08/06 04:56:57;;;;;;;3.83;1.87;;;;;;;;;;5052127;28;20509;-70
2021/08/06 04:59:23;;;;;;;1.60;1.50;;;;;;;;;;5052176;28;20498;-69
2021/08/06 05:01:49;;;;;;;2.27;1.23;;;;;;;;;;5052198;28;20466;-70
2021/08/06 05:07:18;;;;;;;3.13;1.70;;;;;;;;;;5051166;28;20579;-69
2021/08/06 05:09:45;;;;;;;2.63;1.77;;;;;;;;;;5051950;28;20435;-69
2021/08/06 05:12:11;;;;;;;2.17;1.70;;;;;;;;;;5051667;28;20469;-70
2021/08/06 05:14:37;;;;;;;1.70;1.50;;;;;;;;;;5051865;28;20404;-69
2021/08/06 05:17:03;;;;;;;2.03;1.83;;;;;;;;;;5052034;28;20411;-69
2021/08/06 05:22:32;;;;;;;2.23;2.03;;;;;;;;;;5050898;28;20549;-70
2021/08/06 05:24:59;;;;;;;1.63;1.53;;;;;;;;;;5051774;28;20414;-70
2021/08/06 05:27:25;;;;;;;1.40;1.30;;;;;;;;;;5051925;28;20793;-70
2021/08/06 05:29:52;;;;;;;3.03;1.90;;;;;;;;;;5051871;28;20441;-69
2021/08/06 05:32:17;;;;;;;2.17;1.70;;;;;;;;;;5051665;28;20506;-69
2021/08/06 05:37:47;;;;;;;2.47;1.90;;;;;;;;;;5050769;28;20413;-69
2021/08/06 05:40:13;;;;;;;2.07;1.97;;;;;;;;;;5050969;28;20427;-69
2021/08/06 05:42:39;;;;;;;2.53;1.60;;;;;;;;;;5051481;28;20959;-70
2021/08/06 05:45:06;;;;;;;3.67;2.40;;;;;;;;;;5051152;28;20419;-69
2021/08/06 05:47:42;;;;;;;2.27;2.07;;;;;;;;;;5050387;28;20453;-69
2021/08/06 05:53:11;;;;;;;3.40;1.90;;;;;;;;;;5050378;28;20417;-69
2021/08/06 05:55:37;;;;;;;4.17;1.90;;;;;;;;;;5049319;28;20494;-69
2021/08/06 05:58:03;;;;;;;1.80;1.70;;;;;;;;;;5050818;28;20477;-70
2021/08/06 06:00:29;;;;;;;2.10;1.90;;;;;;;;;;5050931;28;20909;-69
2021/08/06 06:02:55;;;;;;;1.97;1.87;;;;;;;;;;5050935;28;20489;-70
2021/08/06 06:05:21;;;;;;;2.30;1.90;;;;;;;;;;5050543;28;20419;-69
2021/08/06 06:07:50;;;;;;;1.97;1.80;;;;;;;;;;5050437;28;20419;-69
2021/08/06 06:10:20;;;;;;;2.27;2.07;;;;;;;;;;5050584;28;20411;-69
2021/08/06 06:12:46;;;;;;;1.80;1.70;;;;;;;;;;5053774;28;20422;-69
2021/08/06 06:15:12;;;;;;;1.70;1.60;;;;;;;;;;5054578;28;20422;-70
2021/08/06 06:17:39;;;;;;;2.47;1.80;;;;;;;;;;5054634;28;20415;-69
2021/08/06 06:23:08;;;;;;;2.23;2.03;;;;;;;;;;5054528;28;20521;-69
2021/08/06 06:25:34;;;;;;;2.10;1.90;;;;;;;;;;5054274;28;20471;-69
2021/08/06 06:28:02;;;;;;;2.30;2.07;;;;;;;;;;5054446;28;20465;-69
2021/08/06 06:30:29;;;;;;;2.40;1.83;;;;;;;;;;5054615;28;20468;-69
2021/08/06 06:32:56;;;;;;;1.87;1.57;;;;;;;;;;5054366;28;20415;-69
2021/08/06 06:38:26;;;;;;;2.37;2.17;;;;;;;;;;5053764;28;20461;-69
2021/08/06 06:40:52;;;;;;;2.47;2.00;;;;;;;;;;5053947;28;20866;-69
2021/08/06 06:43:18;;;;;;;2.40;1.77;;;;;;;;;;5053614;28;20894;-69
2021/08/06 06:45:44;;;;;;;1.90;1.57;;;;;;;;;;5054071;28;20457;-71
2021/08/06 06:48:10;;;;;;;1.63;1.53;;;;;;;;;;5053906;28;20766;-69
2021/08/06 06:53:40;;;;;;;2.20;1.83;;;;;;;;;;5053669;28;20476;-70
2021/08/06 06:56:06;;;;;;;3.00;2.40;;;;;;;;;;5052741;28;20438;-69
2021/08/06 06:58:32;;;;;;;2.60;1.50;;;;;;;;;;5054051;28;20423;-70
2021/08/06 07:00:58;;;;;;;1.13;1.00;;;;;;;;;;5053766;28;21038;-69
2021/08/06 07:03:24;;;;;;;1.83;1.70;;;;;;;;;;5053897;28;20422;-69
2021/08/06 07:08:54;;;;;;;1.60;1.50;;;;;;;;;;5053605;28;20429;-71
2021/08/06 07:11:20;;;;;;;1.93;1.47;;;;;;;;;;5053542;28;20445;-71
2021/08/06 07:13:46;;;;;;;1.40;1.30;;;;;;;;;;5053504;28;20464;-70
2021/08/06 07:16:12;;;;;;;1.47;1.37;;;;;;;;;;5053247;28;20509;-70
2021/08/06 07:18:38;;;;;;;1.77;1.63;;;;;;;;;;5053881;28;20412;-71
2021/08/06 07:24:07;;;;;;;2.83;2.23;;;;;;;;;;5051988;28;20472;-71
2021/08/06 07:26:34;;;;;;;4.17;1.40;;;;;;;;;;5053674;28;20768;-71
2021/08/06 07:29:00;;;;;;;1.90;1.80;;;;;;;;;;5053740;28;20414;-70
2021/08/06 07:31:26;;;;;;;2.10;1.50;;;;;;;;;;5053996;28;20414;-70
2021/08/06 07:33:52;;;;;;;4.37;2.20;;;;;;;;;;5053101;28;20450;-71
2021/08/06 07:36:18;;;;;;;1.60;1.30;;;;;;;;;;5053190;28;20545;-70
2021/08/06 07:38:44;;;;;;;1.60;1.50;;;;;;;;;;5052181;28;20407;-71
2021/08/06 07:41:10;;;;;;;3.30;1.40;;;;;;;;;;5052740;28;20415;-71
2021/08/06 07:43:36;;;;;;;1.73;1.60;;;;;;;;;;5052629;28;20445;-72
2021/08/06 07:46:02;;;;;;;2.60;1.60;;;;;;;;;;5053348;28;20419;-74
2021/08/06 07:48:28;;;;;;;1.77;1.67;;;;;;;;;;5053475;28;21013;-72
2021/08/06 07:53:58;;;;;;;1.67;1.57;;;;;;;;;;5052976;28;20422;-73
2021/08/06 07:56:24;;;;;;;1.90;1.40;;;;;;;;;;5053540;28;20450;-75
2021/08/06 07:58:50;;;;;;;1.77;1.67;;;;;;;;;;5053183;28;20419;-72
2021/08/06 08:01:15;;;;;;;2.17;1.50;;;;;;;;;;5052691;28;20450;-73
2021/08/06 08:03:42;;;;;;;1.83;1.30;;;;;;;;;;5053441;28;20501;-71
2021/08/06 08:09:11;;;;;;;1.20;1.10;;;;;;;;;;5053045;28;20472;-72
2021/08/06 08:11:37;;;;;;;1.10;1.00;;;;;;;;;;5051060;28;20431;-72
2021/08/06 08:14:03;;;;;;;2.80;1.13;;;;;;;;;;5052869;28;20507;-71
2021/08/06 08:16:29;;;;;;;1.23;0.93;;;;;;;;;;5051358;28;20439;-72
2021/08/06 08:18:55;;;;;;;1.00;0.73;;;;;;;;;;5052887;28;20769;-70
2021/08/06 08:24:25;;;;;;;0.80;0.80;;;;;;;;;;5052636;28;20430;-71
2021/08/06 08:26:51;;;;;;;0.70;0.70;;;;;;;;;;5052840;28;20419;-71
2021/08/06 08:29:17;;;;;;;1.03;0.77;;;;;;;;;;5053070;28;20897;-71
2021/08/06 08:31:43;;;;;;;2.13;0.90;;;;;;;;;;5051389;28;20498;-69
2021/08/06 08:34:09;;;;;;;1.10;1.00;;;;;;;;;;5051600;28;20520;-70
2021/08/06 08:39:39;;;;;;;0.90;0.70;;;;;;;;;;5051900;28;20418;-70
2021/08/06 08:42:05;;;;;;;0.80;0.80;;;;;;;;;;5051664;28;20470;-70
2021/08/06 08:44:32;;;;;;;1.10;0.73;;;;;;;;;;5051765;28;20418;-69
2021/08/06 08:46:59;;;;;;;1.37;0.77;;;;;;;;;;5051998;28;20829;-71
2021/08/06 08:49:30;;;;;;;1.17;0.60;;;;;;;;;;5051827;28;20461;-70
2021/08/06 08:54:59;;;;;;;1.37;0.60;;;;;;;;;;5051320;28;20819;-70
2021/08/06 08:57:25;;;;;;;1.13;0.50;;;;;;;;;;5051332;28;20411;-71
2021/08/06 08:59:52;;;;;;;1.53;0.50;;;;;;;;;;5049619;28;20937;-70
2021/08/06 09:02:19;;;;;;;2.20;0.73;;;;;;;;;;5051533;28;20478;-71
2021/08/06 09:04:47;;;;;;;3.17;0.70;;;;;;;;;;5050881;28;20433;-70
2021/08/06 09:07:27;;;;;;;1.00;0.73;;;;;;;;;;5050421;28;20446;-71
2021/08/06 09:10:05;;;;;;;0.67;0.67;;;;;;;;;;5051888;28;20510;-71
2021/08/06 09:12:45;;;;;;;0.60;0.60;;;;;;;;;;5052048;28;20430;-71
2021/08/06 09:15:11;;;;;;;0.87;0.73;;;;;;;;;;5052552;28;20411;-71
2021/08/06 09:17:37;;;;;;;1.30;0.87;;;;;;;;;;5051551;28;20423;-71
2021/08/06 09:20:07;;;;;;;1.07;0.90;;;;;;;;;;5052039;28;20426;-72
2021/08/06 09:22:33;;;;;;;0.70;0.60;;;;;;;;;;5050961;28;20467;-71
2021/08/06 09:25:16;;;;;;;1.73;1.10;;;;;;;;;;5051783;28;20414;-71
2021/08/06 09:27:43;;;;;;;0.67;0.67;;;;;;;;;;5052092;28;20450;-71
2021/08/06 09:30:14;;;;;;;1.37;1.10;;;;;;;;;;5047391;28;20415;-71
2021/08/06 09:32:47;;;;;;;1.70;0.80;;;;;;;;;;5051658;28;20423;-71
2021/08/06 09:35:15;;;;;;;1.37;1.00;;;;;;;;;;5051337;28;20485;-70
2021/08/06 09:37:41;;;;;;;1.63;0.80;;;;;;;;;;5033479;28;20435;-71
2021/08/06 09:40:12;;;;;;;1.20;1.00;;;;;;;;;;5051936;28;20442;-71
2021/08/06 09:42:39;;;;;;;1.30;0.80;;;;;;;;;;5051441;28;20858;-72
2021/08/06 09:45:07;;;;;;;0.80;0.80;;;;;;;;;;5049410;28;20521;-72
2021/08/06 09:47:34;;;;;;;2.40;1.00;;;;;;;;;;5050257;28;20549;-72
2021/08/06 09:50:08;;;;;;;1.80;1.07;;;;;;;;;;5050823;28;20769;-70
2021/08/06 09:55:38;;;;;;;1.47;1.03;;;;;;;;;;5052695;28;20476;-72
2021/08/06 09:58:12;;;;;;;1.40;1.23;;;;;;;;;;5053146;28;20555;-72
2021/08/06 10:00:39;;;;;;;0.80;0.80;;;;;;;;;;5052953;28;20506;-72
2021/08/06 10:03:05;;;;;;;1.10;0.97;;;;;;;;;;5052626;28;20521;-72
2021/08/06 10:05:32;;;;;;;2.73;0.80;;;;;;;;;;5051578;28;20458;-71
2021/08/06 10:07:59;;;;;;;2.27;1.30;;;;;;;;;;5051254;28;20906;-72
2021/08/06 10:10:26;;;;;;;1.50;1.07;;;;;;;;;;5051559;28;20498;-71
2021/08/06 10:12:53;;;;;;;1.10;0.83;;;;;;;;;;5051362;28;20431;-72
2021/08/06 10:15:20;;;;;;;1.30;1.10;;;;;;;;;;5052536;28;20419;-72
2021/08/06 10:17:47;;;;;;;1.27;1.00;;;;;;;;;;5052572;28;20743;-72
2021/08/06 10:20:14;;;;;;;2.53;0.80;;;;;;;;;;5052426;28;20498;-71
2021/08/06 10:25:43;;;;;;;5.33;1.00;;;;;;;;;;5052440;28;20469;-71
2021/08/06 10:28:10;;;;;;;2.27;1.13;;;;;;;;;;5052544;28;20416;-71
2021/08/06 10:30:37;;;;;;;2.43;0.80;;;;;;;;;;5052665;28;20489;-71
2021/08/06 10:33:09;;;;;;;1.23;1.00;;;;;;;;;;5052592;28;20429;-71
2021/08/06 10:35:43;;;;;;;1.30;0.93;;;;;;;;;;5052327;28;20471;-72
2021/08/06 10:38:10;;;;;;;1.40;1.10;;;;;;;;;;5052417;28;20757;-73
2021/08/06 10:40:39;;;;;;;2.40;1.00;;;;;;;;;;5052266;28;20488;-72
2021/08/06 10:43:11;;;;;;;2.30;1.20;;;;;;;;;;5052511;28;20478;-73
2021/08/06 10:45:49;;;;;;;1.13;0.70;;;;;;;;;;5052364;28;20427;-72
2021/08/06 10:48:27;;;;;;;1.40;1.30;;;;;;;;;;5052352;28;20426;-72
2021/08/06 10:51:13;;;;;;;0.80;0.80;;;;;;;;;;5052195;28;20411;-72
2021/08/06 10:53:40;;;;;;;1.80;0.80;;;;;;;;;;5050849;28;20529;-73
2021/08/06 10:56:18;;;;;;;0.77;0.63;;;;;;;;;;5052174;28;20442;-72
2021/08/06 10:58:53;;;;;;;2.53;1.10;;;;;;;;;;5055045;28;20426;-72
2021/08/06 11:01:25;;;;;;;2.30;1.20;;;;;;;;;;5054580;28;20504;-71
2021/08/06 11:03:58;;;;;;;1.50;0.80;;;;;;;;;;5055934;28;20431;-71
2021/08/06 11:06:54;;;;;;;1.93;1.07;;;;;;;;;;5055827;28;20426;-72
2021/08/06 11:09:27;;;;;;;4.23;1.20;;;;;;;;;;5041585;28;20434;-72
2021/08/06 11:11:59;;;;;;;1.20;1.00;;;;;;;;;;5055924;28;20517;-73
2021/08/06 11:14:33;;;;;;;1.27;0.73;;;;;;;;;;5055724;28;20430;-73
2021/08/06 11:17:21;;;;;;;2.83;1.50;;;;;;;;;;5055607;28;20425;-72
2021/08/06 11:19:49;;;;;;;2.00;0.80;;;;;;;;;;5055621;28;20415;-72
2021/08/06 11:22:35;;;;;;;2.07;0.83;;;;;;;;;;5055207;28;21067;-72
2021/08/06 11:25:06;;;;;;;0.80;0.80;;;;;;;;;;5055579;28;20426;-72
2021/08/06 11:27:35;;;;;;;0.80;0.70;;;;;;;;;;5056320;28;20407;-72
2021/08/06 11:30:12;;;;;;;1.73;0.60;;;;;;;;;;5057746;28;20457;-72
2021/08/06 11:32:57;;;;;;;2.30;0.93;;;;;;;;;;5055809;28;20402;-71
2021/08/06 11:35:27;;;;;;;1.17;0.73;;;;;;;;;;5055377;28;20486;-70
2021/08/06 11:37:53;;;;;;;0.70;0.60;;;;;;;;;;5055307;28;20532;-72
2021/08/06 11:40:21;;;;;;;1.73;1.00;;;;;;;;;;5055356;28;20419;-73
2021/08/06 11:42:48;;;;;;;1.03;0.83;;;;;;;;;;5055002;28;20802;-73
2021/08/06 11:45:15;;;;;;;2.57;1.00;;;;;;;;;;5054070;28;20831;-71
2021/08/06 11:47:49;;;;;;;2.97;0.90;;;;;;;;;;5055007;28;20426;-71
2021/08/06 11:50:16;;;;;;;2.57;1.00;;;;;;;;;;5054920;28;20423;-71
2021/08/06 11:52:45;;;;;;;2.20;0.70;;;;;;;;;;5054751;28;20438;-71
2021/08/06 11:55:12;;;;;;;1.80;1.20;;;;;;;;;;5054707;28;20439;-71
2021/08/06 11:57:45;;;;;;;1.90;0.90;;;;;;;;;;5055091;28;20495;-72
2021/08/06 12:00:22;;;;;;;1.00;0.80;;;;;;;;;;5054910;28;20431;-72
2021/08/06 12:03:05;;;;;;;1.47;0.70;;;;;;;;;;5054972;28;20474;-72
2021/08/06 12:05:31;;;;;;;2.60;1.10;;;;;;;;;;5053435;28;20859;-71
2021/08/06 12:07:58;;;;;;;0.90;0.73;;;;;;;;;;5054797;28;20418;-72
2021/08/06 12:10:27;;;;;;;3.93;1.00;;;;;;;;;;5054116;28;20439;-71
2021/08/06 12:12:54;;;;;;;1.60;0.87;;;;;;;;;;5054488;28;20411;-71
2021/08/06 12:15:20;;;;;;;1.57;0.90;;;;;;;;;;5054858;28;20514;-71
2021/08/06 12:17:46;;;;;;;1.07;0.70;;;;;;;;;;5054435;28;20407;-71
2021/08/06 12:20:12;;;;;;;1.83;1.00;;;;;;;;;;5054443;28;20451;-71
2021/08/06 12:22:41;;;;;;;1.90;0.93;;;;;;;;;;5054303;28;20799;-72
2021/08/06 12:25:13;;;;;;;4.63;0.73;;;;;;;;;;5054530;28;20568;-71
2021/08/06 12:27:39;;;;;;;0.90;0.80;;;;;;;;;;5054210;28;20498;-71
2021/08/06 12:30:44;;;;;;;1.90;1.10;;;;;;;;;;5054357;28;20407;-72
2021/08/06 12:33:20;;;;;;;2.00;0.97;;;;;;;;;;4995794;28;20440;-71
2021/08/06 12:35:47;;;;;;;0.83;0.70;;;;;;;;;;5012111;28;20979;-71
2021/08/06 12:38:39;;;;;;;0.80;0.80;;;;;;;;;;5011975;28;20939;-71
2021/08/06 12:41:05;;;;;;;1.30;0.97;;;;;;;;;;5008494;28;20488;-72
2021/08/06 12:43:31;;;;;;;1.13;1.00;;;;;;;;;;5012051;28;20483;-72
2021/08/06 12:46:19;;;;;;;1.10;1.00;;;;;;;;;;4995569;28;20432;-73
2021/08/06 12:49:04;;;;;;;1.27;0.80;;;;;;;;;;5011995;28;20433;-72
2021/08/06 12:54:35;;;;;;;1.60;0.80;;;;;;;;;;5011531;28;20950;-72
2021/08/06 12:57:01;;;;;;;3.23;0.80;;;;;;;;;;5011629;28;20862;-72
2021/08/06 12:59:27;;;;;;;1.57;0.90;;;;;;;;;;5011682;28;20463;-72
2021/08/06 13:01:53;;;;;;;0.80;0.77;;;;;;;;;;5011600;28;20464;-71
2021/08/06 13:04:32;;;;;;;0.83;0.70;;;;;;;;;;5039925;28;20521;-71
2021/08/06 13:10:02;;;;;;;2.00;1.00;;;;;;;;;;5053281;28;20414;-71
2021/08/06 13:12:29;;;;;;;0.80;0.80;;;;;;;;;;5051299;28;20423;-72
2021/08/06 13:14:56;;;;;;;1.00;0.90;;;;;;;;;;5053515;28;20455;-72
2021/08/06 13:17:24;;;;;;;2.60;0.83;;;;;;;;;;5053457;28;20418;-72
2021/08/06 13:19:50;;;;;;;0.97;0.90;;;;;;;;;;5053162;28;20925;-71
2021/08/06 13:25:20;;;;;;;1.70;0.80;;;;;;;;;;5053025;28;20426;-71
2021/08/06 13:27:46;;;;;;;0.83;0.83;;;;;;;;;;5053084;28;20786;-71
2021/08/06 13:30:12;;;;;;;1.90;0.83;;;;;;;;;;5053297;28;20772;-71
2021/08/06 13:32:39;;;;;;;1.23;0.90;;;;;;;;;;5052817;28;20509;-72
2021/08/06 13:35:05;;;;;;;1.73;1.07;;;;;;;;;;5052992;28;20558;-72
2021/08/06 13:40:36;;;;;;;2.10;0.87;;;;;;;;;;5052918;28;20430;-71
2021/08/06 13:43:02;;;;;;;1.40;0.87;;;;;;;;;;5051579;28;20566;-71
2021/08/06 13:45:28;;;;;;;2.17;0.80;;;;;;;;;;5052992;28;20407;-71
2021/08/06 13:47:55;;;;;;;1.50;0.60;;;;;;;;;;5052995;28;20414;-72
2021/08/06 13:50:21;;;;;;;1.97;0.77;;;;;;;;;;5055849;28;20414;-71
2021/08/06 13:55:50;;;;;;;2.40;1.10;;;;;;;;;;5052614;28;20422;-71
2021/08/06 13:58:16;;;;;;;0.60;0.50;;;;;;;;;;5052684;28;20407;-72
2021/08/06 14:00:42;;;;;;;1.13;1.03;;;;;;;;;;5052853;28;20465;-72
2021/08/06 14:03:08;;;;;;;1.20;1.00;;;;;;;;;;5052578;28;20466;-71
2021/08/06 14:05:35;;;;;;;1.13;0.87;;;;;;;;;;5052742;28;20877;-74
2021/08/06 14:11:06;;;;;;;1.63;0.70;;;;;;;;;;5052573;28;20476;-72
2021/08/06 14:13:32;;;;;;;0.63;0.60;;;;;;;;;;5052703;28;20759;-72
2021/08/06 14:15:58;;;;;;;1.03;0.90;;;;;;;;;;5051229;28;20924;-72
2021/08/06 14:18:25;;;;;;;2.60;0.83;;;;;;;;;;5052407;28;20419;-72
2021/08/06 14:20:51;;;;;;;1.13;0.77;;;;;;;;;;5052483;28;20419;-72
2021/08/06 14:26:21;;;;;;;0.93;0.83;;;;;;;;;;5052750;28;20441;-72
2021/08/06 14:28:47;;;;;;;2.20;0.80;;;;;;;;;;5052705;28;20415;-73
2021/08/06 14:31:13;;;;;;;0.90;0.77;;;;;;;;;;5052743;28;20442;-71
2021/08/06 14:33:41;;;;;;;2.10;0.90;;;;;;;;;;5055542;28;20473;-72
2021/08/06 14:36:08;;;;;;;0.70;0.50;;;;;;;;;;5056237;28;20561;-72
2021/08/06 14:41:38;;;;;;;0.97;0.60;;;;;;;;;;5056072;28;20456;-72
2021/08/06 14:44:04;;;;;;;1.70;0.70;;;;;;;;;;5056649;28;20854;-71
2021/08/06 14:46:32;;;;;;;1.87;0.70;;;;;;;;;;5056254;28;20489;-72
2021/08/06 14:48:58;;;;;;;1.17;0.60;;;;;;;;;;5056385;28;20450;-72
2021/08/06 14:51:24;;;;;;;0.60;0.50;;;;;;;;;;5056176;28;20491;-72
2021/08/06 14:56:53;;;;;;;2.40;0.73;;;;;;;;;;5056245;28;20517;-71
2021/08/06 14:59:19;;;;;;;1.37;0.50;;;;;;;;;;5056062;28;20423;-72
2021/08/06 15:01:45;;;;;;;1.13;0.80;;;;;;;;;;5055801;28;20458;-71
2021/08/06 15:04:11;;;;;;;1.00;0.70;;;;;;;;;;5055796;28;20437;-72
2021/08/06 15:06:37;;;;;;;0.90;0.80;;;;;;;;;;5055936;28;20514;-72
2021/08/06 15:12:06;;;;;;;0.80;0.50;;;;;;;;;;5055842;28;20426;-71
2021/08/06 15:14:32;;;;;;;0.70;0.60;;;;;;;;;;5055568;28;20423;-72
2021/08/06 15:16:58;;;;;;;0.90;0.80;;;;;;;;;;5055620;28;20455;-72
2021/08/06 15:19:25;;;;;;;0.40;0.40;;;;;;;;;;5054221;28;20487;-72
2021/08/06 15:21:51;;;;;;;1.10;0.80;;;;;;;;;;5050745;28;20559;-71
2021/08/06 15:27:21;;;;;;;1.87;1.20;;;;;;;;;;5054932;28;20438;-72
2021/08/06 15:29:47;;;;;;;1.90;1.13;;;;;;;;;;5053608;28;20797;-81
2021/08/06 15:32:14;;;;;;;2.10;0.60;;;;;;;;;;5053008;28;20434;-82
2021/08/06 15:34:40;;;;;;;1.50;0.97;;;;;;;;;;5053245;28;20462;-83
2021/08/06 15:37:06;;;;;;;2.70;1.00;;;;;;;;;;5053718;28;20427;-83
2021/08/06 15:39:32;;;;;;;0.80;0.73;;;;;;;;;;5053609;28;20415;-83
2021/08/06 15:41:58;;;;;;;1.20;0.87;;;;;;;;;;5053172;28;20497;-80
2021/08/06 15:44:24;;;;;;;1.53;0.67;;;;;;;;;;5052164;28;20415;-82
2021/08/06 15:46:50;;;;;;;2.20;0.87;;;;;;;;;;5053364;28;20515;-81
2021/08/06 15:49:16;;;;;;;0.77;0.70;;;;;;;;;;5053138;28;20439;-80
2021/08/06 15:51:42;;;;;;;2.03;0.80;;;;;;;;;;5051702;28;20969;-82
2021/08/06 15:57:12;;;;;;;1.83;1.00;;;;;;;;;;5052769;28;20418;-81
2021/08/06 15:59:38;;;;;;;1.83;0.90;;;;;;;;;;5053540;28;20423;-74
2021/08/06 16:02:07;;;;;;;1.30;1.03;;;;;;;;;;5053451;28;20975;-80
2021/08/06 16:04:37;;;;;;;0.77;0.73;;;;;;;;;;5052829;28;20415;-81
2021/08/06 16:07:03;;;;;;;2.50;0.80;;;;;;;;;;5052888;28;20426;-81
2021/08/06 16:12:33;;;;;;;1.67;0.93;;;;;;;;;;5057017;28;20417;-82
2021/08/06 16:14:59;;;;;;;2.00;0.80;;;;;;;;;;5055688;28;20403;-81
2021/08/06 16:17:25;;;;;;;0.90;0.67;;;;;;;;;;5054563;28;20493;-82
2021/08/06 16:19:51;;;;;;;3.73;1.10;;;;;;;;;;5053056;28;20411;-81
2021/08/06 16:22:17;;;;;;;1.90;1.10;;;;;;;;;;5052299;28;20467;-81
2021/08/06 16:27:47;;;;;;;1.00;0.90;;;;;;;;;;5052406;28;20484;-82
2021/08/06 16:30:13;;;;;;;1.97;0.90;;;;;;;;;;5052658;28;20514;-83
2021/08/06 16:32:39;;;;;;;3.53;1.40;;;;;;;;;;5052651;28;20419;-83
2021/08/06 16:35:05;;;;;;;2.40;1.10;;;;;;;;;;5052294;28;20469;-83
2021/08/06 16:37:31;;;;;;;1.90;1.10;;;;;;;;;;5052572;28;20427;-81
2021/08/06 16:43:00;;;;;;;1.40;1.03;;;;;;;;;;5052260;28;20559;-82
2021/08/06 16:45:26;;;;;;;2.20;1.53;;;;;;;;;;5052179;28;20411;-83
2021/08/06 16:47:53;;;;;;;4.30;1.30;;;;;;;;;;5051852;28;20426;-84
2021/08/06 16:50:19;;;;;;;3.77;1.63;;;;;;;;;;5052007;28;20415;-82
2021/08/06 16:52:45;;;;;;;2.37;1.10;;;;;;;;;;5051488;28;20422;-82
2021/08/06 16:55:11;;;;;;;1.60;1.50;;;;;;;;;;5051373;28;20411;-77
2021/08/06 16:57:37;;;;;;;3.90;1.47;;;;;;;;;;5051812;28;20760;-82
2021/08/06 17:00:05;;;;;;;1.07;0.60;;;;;;;;;;5051589;28;20419;-82
2021/08/06 17:02:31;;;;;;;3.60;1.40;;;;;;;;;;5051649;28;20471;-83
2021/08/06 17:04:57;;;;;;;1.10;1.00;;;;;;;;;;5051796;28;20904;-83
2021/08/06 17:07:23;;;;;;;1.40;1.00;;;;;;;;;;5051463;28;20415;-83